This is the latest recevied weather packets stored in our database for station/object K5MFB-1. If no packets are shown the sender has not sent any weather packets the latest 10 day(s).
| Time | Temp. | Humidity | Pressure | Rain* | Wind** | Luminosity | Snow |
|---|---|---|---|---|---|---|---|
| 1777620016 | 18.89° C | 99% | 1008.2 hPa | 12.7 mm | 0.89 m/s, 186° | - | - |
| 1777619956 | 18.89° C | 99% | 1008.2 hPa | 12.7 mm | 0.89 m/s, 186° | - | - |
| 1777619896 | 18.89° C | 99% | 1008.2 hPa | 12.7 mm | 0.89 m/s, 186° | - | - |
| 1777619836 | 18.89° C | 99% | 1008.2 hPa | 12.7 mm | 0.89 m/s, 186° | - | - |
| 1777619776 | 18.89° C | 99% | 1008.2 hPa | 12.7 mm | 0.89 m/s, 186° | - | - |
| 1777619716 | 18.89° C | 99% | 1008.1 hPa | 7.87 mm | 0.45 m/s, 206° | - | - |
| 1777619656 | 18.89° C | 99% | 1008.1 hPa | 7.87 mm | 0.45 m/s, 206° | - | - |
| 1777619596 | 18.89° C | 99% | 1008.1 hPa | 7.87 mm | 0.45 m/s, 206° | - | - |
| 1777619536 | 18.89° C | 99% | 1008.1 hPa | 7.87 mm | 0.45 m/s, 206° | - | - |
| 1777619476 | 18.89° C | 99% | 1008.1 hPa | 7.87 mm | 0.45 m/s, 206° | - | - |
| 1777619416 | 18.89° C | 99% | 1008.3 hPa | 8.89 mm | 0.45 m/s, 182° | - | - |
| 1777619356 | 18.89° C | 99% | 1008.3 hPa | 8.89 mm | 0.45 m/s, 182° | - | - |
| 1777619296 | 18.89° C | 99% | 1008.3 hPa | 8.89 mm | 0.45 m/s, 182° | - | - |
| 1777619236 | 18.89° C | 99% | 1008.3 hPa | 8.89 mm | 0.45 m/s, 182° | - | - |
| 1777619176 | 18.89° C | 99% | 1008.3 hPa | 8.89 mm | 0.45 m/s, 182° | - | - |
| 1777619116 | 18.89° C | 99% | 1008.5 hPa | 7.87 mm | 0.45 m/s, 197° | - | - |
| 1777619056 | 18.89° C | 99% | 1008.5 hPa | 7.87 mm | 0.45 m/s, 197° | - | - |
| 1777618996 | 18.89° C | 99% | 1008.5 hPa | 7.87 mm | 0.45 m/s, 197° | - | - |
| 1777618936 | 18.89° C | 99% | 1008.5 hPa | 7.87 mm | 0.45 m/s, 197° | - | - |
| 1777618876 | 18.89° C | 99% | 1008.5 hPa | 7.87 mm | 0.45 m/s, 197° | - | - |
| 1777618816 | 18.89° C | 99% | 1008.7 hPa | 4.32 mm | 0.45 m/s, 192° | - | - |
| 1777618756 | 18.89° C | 99% | 1008.7 hPa | 4.32 mm | 0.45 m/s, 192° | - | - |
| 1777618636 | 18.89° C | 99% | 1008.7 hPa | 4.32 mm | 0.45 m/s, 192° | - | - |
| 1777618576 | 18.89° C | 99% | 1008.7 hPa | 4.32 mm | 0.45 m/s, 192° | - | - |
| 1777618516 | 18.89° C | 99% | 1008.4 hPa | 3.05 mm | 0.45 m/s, 209° | - | - |
* Rain latest hour (hover to see other rain measurements)
** Current wind speed in m/s (hover to see current wind gust speed)